Time;durP1;ratioP1;P1;durP2;ratioP2;P2;SDS_P1;SDS_P2;PMS_P1;PMS_P2;Temp;Humidity;BMP_temperature;BMP_pressure;BME280_temperature;BME280_humidity;BME280_pressure;Samples;Min_cycle;Max_cycle;Signal;HPM_P1;HPM_P2
2021/06/17 00:02:02;;;;;;;18.85;14.00;;;18.40;99.90;;;;;;5074843;28;20086;-83
2021/06/17 00:04:28;;;;;;;15.80;13.75;;;18.40;99.90;;;;;;5073993;28;20032;-83
2021/06/17 00:06:53;;;;;;;16.63;13.35;;;18.40;99.90;;;;;;5074727;28;20024;-83
2021/06/17 00:09:19;;;;;;;17.75;13.63;;;18.40;99.90;;;;;;5073491;28;20571;-83
2021/06/17 00:11:45;;;;;;;18.23;13.43;;;18.40;99.90;;;;;;5074470;28;20150;-83
2021/06/17 00:14:11;;;;;;;15.48;11.90;;;18.40;99.90;;;;;;5074544;28;20077;-83
2021/06/17 00:16:36;;;;;;;14.50;11.70;;;18.40;99.90;;;;;;5074898;28;20095;-83
2021/06/17 00:19:02;;;;;;;15.32;11.38;;;18.40;99.90;;;;;;5073284;28;20105;-83
2021/06/17 00:21:28;;;;;;;13.63;10.30;;;18.40;99.90;;;;;;5074509;28;20098;-83
2021/06/17 00:23:54;;;;;;;11.00;9.68;;;18.40;99.90;;;;;;5074532;28;20024;-83
2021/06/17 00:26:20;;;;;;;9.75;8.75;;;18.50;99.90;;;;;;5074602;28;20028;-83
2021/06/17 00:28:45;;;;;;;8.85;7.88;;;18.50;99.90;;;;;;5074845;28;20101;-83
2021/06/17 00:31:11;;;;;;;10.70;7.82;;;18.50;99.90;;;;;;5076187;28;20056;-82
2021/06/17 00:33:37;;;;;;;8.85;8.02;;;18.50;99.90;;;;;;5077504;28;20024;-82
2021/06/17 00:36:03;;;;;;;9.38;7.50;;;18.50;99.90;;;;;;5077414;28;20025;-83
2021/06/17 00:38:29;;;;;;;8.48;7.60;;;18.50;99.90;;;;;;5075090;28;20052;-84
2021/06/17 00:40:55;;;;;;;14.52;8.30;;;18.50;99.90;;;;;;5074715;28;20025;-83
2021/06/17 00:43:23;;;;;;;9.15;7.10;;;18.50;99.90;;;;;;5075022;28;20025;-82
2021/06/17 00:45:51;;;;;;;9.25;7.80;;;18.50;99.90;;;;;;5074629;28;20031;-82
2021/06/17 00:48:17;;;;;;;8.45;7.43;;;18.50;99.90;;;;;;5073182;28;20418;-82
2021/06/17 00:50:53;;;;;;;10.35;7.30;;;18.50;99.90;;;;;;5073074;28;20021;-78
2021/06/17 00:53:25;;;;;;;8.52;7.40;;;18.50;99.90;;;;;;5072774;28;20039;-78
2021/06/17 00:55:51;;;;;;;9.60;7.03;;;18.50;99.90;;;;;;5071503;28;20059;-78
2021/06/17 00:58:17;;;;;;;11.77;8.00;;;18.50;99.90;;;;;;5072859;28;20470;-78
2021/06/17 01:00:43;;;;;;;11.63;7.60;;;18.50;99.90;;;;;;5072917;28;20035;-78
2021/06/17 01:03:10;;;;;;;11.48;7.68;;;18.40;99.90;;;;;;5072690;28;20066;-78
2021/06/17 01:05:36;;;;;;;10.32;7.93;;;18.40;99.90;;;;;;5072583;28;20021;-78
2021/06/17 01:08:23;;;;;;;9.77;7.15;;;18.40;99.90;;;;;;5071493;28;20078;-78
2021/06/17 01:10:57;;;;;;;12.18;6.95;;;18.40;99.90;;;;;;5072085;28;20025;-78
2021/06/17 01:13:39;;;;;;;11.32;7.30;;;18.40;99.90;;;;;;5072644;28;20028;-78
2021/06/17 01:16:16;;;;;;;9.70;7.28;;;18.40;99.90;;;;;;5071536;28;20056;-78
2021/06/17 01:18:49;;;;;;;7.90;7.20;;;18.40;99.90;;;;;;5071423;28;20509;-78
2021/06/17 01:21:37;;;;;;;8.55;7.18;;;18.40;99.90;;;;;;5072713;28;20059;-78
2021/06/17 01:24:11;;;;;;;10.38;7.30;;;18.40;99.90;;;;;;5072675;28;20028;-78
2021/06/17 01:27:18;;;;;;;8.32;7.30;;;18.40;99.90;;;;;;5072330;28;20051;-77
2021/06/17 01:29:51;;;;;;;10.43;8.13;;;18.40;99.90;;;;;;5071063;28;20027;-77
2021/06/17 01:32:18;;;;;;;8.98;7.28;;;18.40;99.90;;;;;;5072082;28;20020;-76
2021/06/17 01:34:47;;;;;;;9.13;7.70;;;18.40;99.90;;;;;;5072038;28;20028;-77
2021/06/17 01:37:16;;;;;;;8.50;7.60;;;18.40;99.90;;;;;;5072227;28;20024;-77
2021/06/17 01:39:44;;;;;;;12.15;7.55;;;18.40;99.90;;;;;;5072387;28;20035;-77
2021/06/17 01:42:11;;;;;;;8.15;7.22;;;18.40;99.90;;;;;;5072206;28;20497;-77
2021/06/17 01:44:37;;;;;;;8.25;7.45;;;18.50;99.90;;;;;;5072106;28;20025;-76
2021/06/17 01:47:05;;;;;;;9.05;7.85;;;18.50;99.90;;;;;;5072105;28;20028;-76
2021/06/17 01:49:35;;;;;;;11.85;8.30;;;18.40;99.90;;;;;;5072042;28;20086;-76
2021/06/17 01:52:03;;;;;;;9.18;7.65;;;18.40;99.90;;;;;;5072206;28;20037;-76
2021/06/17 01:54:31;;;;;;;10.00;7.88;;;18.50;99.90;;;;;;5072302;28;20146;-75
2021/06/17 01:56:59;;;;;;;9.63;7.90;;;18.50;99.90;;;;;;5071668;28;20027;-76
2021/06/17 01:59:31;;;;;;;9.32;8.25;;;18.60;99.90;;;;;;5072147;28;20470;-76
2021/06/17 02:02:00;;;;;;;10.55;8.27;;;18.60;99.90;;;;;;5073094;28;20103;-76
2021/06/17 02:04:27;;;;;;;10.45;7.10;;;18.70;99.90;;;;;;5073084;28;20031;-76
2021/06/17 02:06:54;;;;;;;8.60;6.93;;;19.00;99.90;;;;;;5070996;28;20021;-76
2021/06/17 02:09:23;;;;;;;7.20;6.18;;;19.40;99.90;;;;;;5071823;28;20029;-77
2021/06/17 02:11:49;;;;;;;7.80;6.55;;;19.80;99.90;;;;;;5071719;28;20091;-77
2021/06/17 02:14:16;;;;;;;7.20;6.22;;;20.30;99.90;;;;;;5071595;28;20025;-76
2021/06/17 02:16:43;;;;;;;7.90;5.95;;;20.70;99.90;;;;;;5071694;28;20538;-77
2021/06/17 02:19:16;;;;;;;7.30;5.88;;;20.90;99.90;;;;;;5071706;28;20050;-77
2021/06/17 02:21:44;;;;;;;6.47;5.88;;;21.00;99.90;;;;;;5072445;28;20104;-78
2021/06/17 02:24:11;;;;;;;6.65;6.05;;;21.30;99.90;;;;;;5075526;28;20031;-77
2021/06/17 02:26:42;;;;;;;11.18;5.90;;;21.60;99.90;;;;;;5075459;28;20025;-76
2021/06/17 02:29:12;;;;;;;6.13;5.50;;;21.80;99.90;;;;;;5075838;28;20020;-78
2021/06/17 02:31:43;;;;;;;6.90;5.45;;;22.30;99.90;;;;;;5075455;28;20263;-76
2021/06/17 02:34:13;;;;;;;5.90;5.25;;;22.80;99.90;;;;;;5074195;28;20425;-77
2021/06/17 02:36:45;;;;;;;5.75;5.22;;;23.50;99.90;;;;;;5075492;28;20052;-77
2021/06/17 02:39:13;;;;;;;;;;;24.30;99.90;;;;;;5075513;28;20020;-76
2021/06/17 02:41:44;;;;;;;6.22;4.88;;;24.90;99.90;;;;;;5074040;28;20247;-77
2021/06/17 02:44:11;;;;;;;5.60;4.93;;;25.50;99.90;;;;;;5075125;28;20108;-77
2021/06/17 02:46:37;;;;;;;8.32;5.10;;;26.00;99.90;;;;;;5075139;28;20032;-77
2021/06/17 02:49:07;;;;;;;6.22;5.03;;;26.50;99.90;;;;;;5075162;28;20023;-77
2021/06/17 02:51:34;;;;;;;7.47;4.82;;;26.90;99.90;;;;;;5075255;28;20494;-77
2021/06/17 02:54:00;;;;;;;4.90;4.40;;;27.20;99.90;;;;;;5075120;28;20041;-77
2021/06/17 02:56:36;;;;;;;5.30;4.55;;;27.50;99.90;;;;;;5075423;28;20850;-77
2021/06/17 02:59:28;;;;;;;9.40;4.35;;;27.80;99.90;;;;;;5074817;28;20025;-77
2021/06/17 03:02:01;;;;;;;4.88;4.45;;;28.20;99.10;;;;;;5074844;28;20032;-75
2021/06/17 03:05:08;;;;;;;5.45;4.53;;;28.80;98.50;;;;;;5074539;28;20052;-75
2021/06/17 03:07:39;;;;;;;4.70;4.30;;;29.50;96.70;;;;;;5052609;28;20024;-77
2021/06/17 03:10:08;;;;;;;5.30;4.60;;;30.00;94.00;;;;;;5052923;28;20033;-77
2021/06/17 03:12:36;;;;;;;5.30;4.60;;;30.30;91.30;;;;;;5052461;28;20104;-77
2021/06/17 03:15:05;;;;;;;5.47;4.60;;;30.60;88.90;;;;;;5052499;28;20032;-77
2021/06/17 03:17:34;;;;;;;4.70;4.30;;;30.90;85.60;;;;;;5052318;28;20029;-77
2021/06/17 03:20:04;;;;;;;5.18;4.68;;;31.10;83.50;;;;;;5052252;28;20044;-77
2021/06/17 03:22:32;;;;;;;7.07;4.43;;;31.30;81.60;;;;;;5052083;28;20117;-77
2021/06/17 03:25:02;;;;;;;7.38;4.40;;;31.40;79.90;;;;;;5052144;28;20044;-77
2021/06/17 03:27:29;;;;;;;5.93;4.63;;;31.50;78.50;;;;;;5052025;28;20167;-77
2021/06/17 03:29:56;;;;;;;6.22;5.28;;;31.60;78.00;;;;;;5051926;28;20044;-77
2021/06/17 03:32:22;;;;;;;5.47;4.40;;;31.70;76.90;;;;;;5051838;28;20033;-77
2021/06/17 03:34:49;;;;;;;5.57;4.30;;;31.80;75.80;;;;;;5051513;28;20040;-77
2021/06/17 03:37:19;;;;;;;5.10;4.60;;;31.90;75.00;;;;;;5054063;28;20348;-77
2021/06/17 03:39:45;;;;;;;5.15;4.60;;;32.00;73.30;;;;;;5074042;28;20111;-77
2021/06/17 03:42:12;;;;;;;5.97;5.03;;;32.20;73.10;;;;;;5073866;28;20095;-77
2021/06/17 03:44:42;;;;;;;4.60;4.20;;;32.50;72.20;;;;;;5073691;28;20021;-76
2021/06/17 03:47:11;;;;;;;6.63;4.90;;;32.70;70.40;;;;;;5074073;28;20467;-79
2021/06/17 03:49:38;;;;;;;5.30;4.90;;;33.00;70.40;;;;;;5074128;28;20101;-81
2021/06/17 03:52:05;;;;;;;5.22;4.75;;;33.30;69.30;;;;;;5073232;28;20052;-81
2021/06/17 03:54:31;;;;;;;5.10;4.70;;;33.80;68.70;;;;;;5074128;28;20127;-80
2021/06/17 03:57:02;;;;;;;6.28;4.78;;;34.30;67.10;;;;;;5074458;28;20031;-80
2021/06/17 03:59:57;;;;;;;8.50;5.20;;;34.70;65.70;;;;;;5074585;28;20074;-80
2021/06/17 04:02:27;;;;;;;5.38;4.88;;;35.30;65.40;;;;;;5064733;28;20027;-79
2021/06/17 04:04:53;;;;;;;5.40;4.90;;;35.80;64.70;;;;;;5074286;28;20024;-79
2021/06/17 04:07:22;;;;;;;5.18;4.78;;;36.40;63.40;;;;;;5073295;28;20020;-79
2021/06/17 04:09:50;;;;;;;5.75;4.75;;;36.90;61.30;;;;;;5078283;28;20059;-79
2021/06/17 04:12:22;;;;;;;5.82;5.30;;;37.20;60.20;;;;;;5076680;28;20024;-81
2021/06/17 04:14:54;;;;;;;5.30;4.82;;;37.50;59.20;;;;;;5078844;28;20093;-79
2021/06/17 04:17:25;;;;;;;4.82;4.43;;;38.00;58.00;;;;;;5082231;28;20021;-81
2021/06/17 04:19:53;;;;;;;5.93;5.30;;;38.10;57.20;;;;;;5077449;28;20021;-81
2021/06/17 04:22:21;;;;;;;6.38;4.72;;;38.40;57.60;;;;;;5074376;28;20025;-82
2021/06/17 04:24:51;;;;;;;4.75;4.28;;;39.00;56.60;;;;;;5075069;28;20215;-81
2021/06/17 04:27:19;;;;;;;4.30;4.00;;;39.50;55.30;;;;;;5073186;28;20020;-81
2021/06/17 04:29:45;;;;;;;4.38;4.03;;;40.10;54.90;;;;;;5074624;28;20050;-81
2021/06/17 04:32:13;;;;;;;5.82;4.50;;;40.40;53.80;;;;;;5074263;28;20457;-80
2021/06/17 04:34:40;;;;;;;8.38;7.40;;;40.70;52.60;;;;;;5073424;28;20028;-80
2021/06/17 04:37:09;;;;;;;5.63;5.05;;;41.00;51.80;;;;;;5072882;28;20016;-80
2021/06/17 04:39:36;;;;;;;4.38;4.05;;;41.20;50.40;;;;;;5071710;28;20027;-77
2021/06/17 04:42:02;;;;;;;4.60;4.20;;;41.10;49.90;;;;;;5072553;28;20021;-77
2021/06/17 04:44:28;;;;;;;4.72;4.32;;;41.10;49.20;;;;;;5070602;28;20024;-78
2021/06/17 04:46:55;;;;;;;4.82;4.18;;;41.20;49.20;;;;;;5071709;28;20025;-77
2021/06/17 04:49:22;;;;;;;4.70;4.38;;;41.60;49.30;;;;;;5072401;28;20029;-77
2021/06/17 04:51:48;;;;;;;4.47;4.10;;;42.00;48.30;;;;;;5072453;28;20074;-78
2021/06/17 04:54:20;;;;;;;5.70;4.40;;;42.10;47.40;;;;;;5072044;28;20502;-78
2021/06/17 04:56:47;;;;;;;4.72;4.03;;;42.50;47.10;;;;;;5070929;28;20029;-77
2021/06/17 04:59:14;;;;;;;6.78;3.97;;;42.70;46.30;;;;;;5072024;28;20048;-79
2021/06/17 05:01:41;;;;;;;4.65;3.78;;;42.70;45.80;;;;;;5071527;28;20451;-78
2021/06/17 05:04:10;;;;;;;4.70;4.30;;;42.30;45.20;;;;;;5071676;28;20475;-78
2021/06/17 05:06:39;;;;;;;5.10;4.60;;;42.20;45.30;;;;;;5071543;28;20020;-78
2021/06/17 05:11:53;;;;;;;4.22;3.78;;;42.30;44.80;;;;;;5071856;28;20094;-78
2021/06/17 05:14:20;;;;;;;4.30;4.00;;;42.60;44.90;;;;;;5071864;28;20104;-81
2021/06/17 05:16:47;;;;;;;4.85;4.10;;;42.80;43.50;;;;;;5071896;28;20104;-81
2021/06/17 05:19:13;;;;;;;4.03;3.72;;;42.80;42.90;;;;;;5071741;28;20027;-80
2021/06/17 05:21:39;;;;;;;4.15;3.72;;;42.90;42.90;;;;;;5078840;28;20040;-79
2021/06/17 05:24:07;;;;;;;4.07;3.78;;;43.20;42.40;;;;;;5073505;28;20024;-82
2021/06/17 05:26:32;;;;;;;5.82;4.50;;;43.40;41.10;;;;;;5072981;28;20470;-82
2021/06/17 05:28:58;;;;;;;5.28;4.88;;;43.70;40.50;;;;;;5073206;28;20108;-81
2021/06/17 05:31:26;;;;;;;6.35;4.05;;;43.90;39.70;;;;;;5072549;28;20453;-81
2021/06/17 05:33:52;;;;;;;4.22;3.83;;;44.40;39.50;;;;;;5072666;28;20506;-81
2021/06/17 05:36:17;;;;;;;4.22;3.83;;;44.80;38.80;;;;;;5071299;28;20162;-81
2021/06/17 05:38:43;;;;;;;5.22;3.97;;;44.90;38.20;;;;;;5071507;28;20366;-81
2021/06/17 05:41:10;;;;;;;8.63;4.57;;;45.00;38.20;;;;;;5072001;28;20017;-82
2021/06/17 05:43:36;;;;;;;5.57;4.53;;;45.10;37.90;;;;;;5072895;28;20482;-81
2021/06/17 05:46:02;;;;;;;4.97;3.70;;;45.30;37.70;;;;;;5072406;28;20048;-82
2021/06/17 05:48:29;;;;;;;4.25;3.95;;;45.40;37.60;;;;;;5074270;28;20025;-81
2021/06/17 05:50:55;;;;;;;5.47;4.32;;;45.50;37.10;;;;;;5074585;28;20055;-81
2021/06/17 05:53:21;;;;;;;5.13;4.20;;;45.50;36.80;;;;;;5072122;28;20035;-80
2021/06/17 05:55:47;;;;;;;4.20;3.60;;;45.40;36.50;;;;;;5072370;28;20045;-81
2021/06/17 05:58:13;;;;;;;6.57;4.00;;;45.10;36.70;;;;;;5070956;28;20021;-82
2021/06/17 06:00:40;;;;;;;4.10;3.78;;;44.90;37.00;;;;;;5072020;28;20027;-82
2021/06/17 06:03:06;;;;;;;5.07;3.80;;;44.60;36.90;;;;;;5072302;28;20019;-83
2021/06/17 06:05:32;;;;;;;6.47;3.95;;;44.40;37.20;;;;;;5071114;28;20439;-81
2021/06/17 06:08:00;;;;;;;7.45;3.92;;;44.20;37.20;;;;;;5071591;28;20039;-82
2021/06/17 06:10:26;;;;;;;4.60;3.90;;;44.10;37.30;;;;;;5072465;28;20078;-82
2021/06/17 06:12:52;;;;;;;4.07;3.78;;;43.90;37.20;;;;;;5072723;28;20020;-81
2021/06/17 06:15:18;;;;;;;4.32;3.50;;;43.70;37.20;;;;;;5071666;28;20441;-83
2021/06/17 06:17:43;;;;;;;5.50;4.00;;;43.60;37.30;;;;;;5070985;28;20112;-82
2021/06/17 06:20:09;;;;;;;4.40;3.95;;;43.40;37.80;;;;;;5074013;28;20032;-81
2021/06/17 06:22:36;;;;;;;4.20;3.90;;;43.40;37.80;;;;;;5075187;28;20028;-82
2021/06/17 06:25:02;;;;;;;3.80;3.50;;;43.50;37.70;;;;;;5073395;28;20147;-82
2021/06/17 06:27:28;;;;;;;4.03;3.53;;;43.70;37.80;;;;;;5072177;28;20024;-83
2021/06/17 06:29:56;;;;;;;4.45;3.60;;;43.80;37.50;;;;;;5073291;28;20036;-81
2021/06/17 06:32:21;;;;;;;4.90;3.70;;;43.80;37.60;;;;;;5077693;28;20024;-82
2021/06/17 06:34:47;;;;;;;4.18;3.88;;;44.00;37.50;;;;;;5078848;28;20060;-83
2021/06/17 06:37:13;;;;;;;3.92;3.63;;;44.00;37.10;;;;;;5077602;28;20101;-83
2021/06/17 06:39:38;;;;;;;3.42;3.22;;;43.80;37.50;;;;;;5072701;28;20108;-82
2021/06/17 06:42:05;;;;;;;3.63;3.33;;;43.90;37.30;;;;;;5073321;28;20427;-81
2021/06/17 06:44:31;;;;;;;3.88;3.50;;;43.90;37.20;;;;;;5073752;28;20025;-82
2021/06/17 06:46:58;;;;;;;4.57;3.78;;;44.00;37.30;;;;;;5071193;28;20452;-82
2021/06/17 06:49:24;;;;;;;4.90;3.80;;;44.10;37.20;;;;;;5071710;28;20054;-81
2021/06/17 06:51:50;;;;;;;5.32;3.60;;;43.70;36.40;;;;;;5071568;28;20025;-82
2021/06/17 06:54:18;;;;;;;4.13;3.83;;;43.30;37.00;;;;;;5071122;28;20121;-80
2021/06/17 06:56:46;;;;;;;5.53;4.03;;;43.00;37.00;;;;;;5072342;28;20025;-82
2021/06/17 06:59:12;;;;;;;6.35;3.80;;;42.70;37.80;;;;;;5071642;28;20124;-82
2021/06/17 07:01:37;;;;;;;3.88;3.53;;;42.70;37.80;;;;;;5071503;28;20024;-82
2021/06/17 07:04:04;;;;;;;3.80;3.50;;;42.50;38.00;;;;;;5070757;28;20383;-82
2021/06/17 07:06:30;;;;;;;3.97;3.60;;;42.30;38.10;;;;;;5070285;28;20039;-82
2021/06/17 07:08:56;;;;;;;3.40;3.20;;;42.30;38.40;;;;;;5069812;28;20033;-82
2021/06/17 07:11:22;;;;;;;4.90;3.83;;;42.50;38.40;;;;;;5073199;28;20490;-81
2021/06/17 07:13:47;;;;;;;5.57;3.50;;;42.60;38.40;;;;;;5073431;28;20024;-81
2021/06/17 07:16:13;;;;;;;5.18;3.55;;;42.60;38.40;;;;;;5073076;28;20096;-81
2021/06/17 07:18:39;;;;;;;5.88;4.38;;;42.60;38.40;;;;;;5073149;28;20110;-80
2021/06/17 07:21:05;;;;;;;4.60;3.63;;;42.50;38.50;;;;;;5073329;28;20454;-81
2021/06/17 07:23:33;;;;;;;3.60;3.38;;;42.40;38.40;;;;;;5073501;28;20024;-83
2021/06/17 07:25:59;;;;;;;3.42;3.13;;;42.20;38.40;;;;;;5073481;28;20028;-82
2021/06/17 07:28:25;;;;;;;3.53;3.33;;;41.90;38.50;;;;;;5073389;28;20034;-82
2021/06/17 07:30:50;;;;;;;4.22;3.80;;;41.80;38.70;;;;;;5073386;28;20025;-83
2021/06/17 07:33:16;;;;;;;15.32;4.90;;;41.80;38.80;;;;;;5072311;28;20628;-83
2021/06/17 07:35:42;;;;;;;4.00;3.70;;;41.70;39.10;;;;;;5073678;28;20101;-81
2021/06/17 07:38:08;;;;;;;6.03;3.30;;;41.70;38.80;;;;;;5072075;28;20038;-82
2021/06/17 07:40:34;;;;;;;3.97;3.55;;;41.50;38.80;;;;;;5073777;28;20032;-83
2021/06/17 07:43:00;;;;;;;3.95;3.45;;;41.10;38.90;;;;;;5073542;28;20417;-83
2021/06/17 07:45:30;;;;;;;3.40;3.20;;;41.10;39.30;;;;;;5072531;28;20036;-83
2021/06/17 07:47:56;;;;;;;4.07;3.50;;;40.80;39.40;;;;;;5073360;28;20086;-85
2021/06/17 07:50:22;;;;;;;5.00;4.30;;;40.50;39.30;;;;;;5073178;28;20039;-84
2021/06/17 07:52:49;;;;;;;3.75;3.45;;;40.10;39.80;;;;;;5073562;28;20024;-83
2021/06/17 07:55:15;;;;;;;4.75;3.53;;;39.70;39.80;;;;;;5072604;28;20465;-82
2021/06/17 07:57:41;;;;;;;4.50;3.47;;;39.00;40.50;;;;;;5072912;28;20095;-81
2021/06/17 08:00:08;;;;;;;3.30;3.00;;;38.80;41.30;;;;;;5072332;28;20347;-81
2021/06/17 08:02:34;;;;;;;3.95;3.67;;;38.70;41.60;;;;;;5072610;28;20095;-82
2021/06/17 08:04:59;;;;;;;3.72;3.42;;;38.60;41.60;;;;;;5072528;28;20447;-83
2021/06/17 08:07:25;;;;;;;4.40;4.00;;;38.30;41.80;;;;;;5073538;28;20435;-82
2021/06/17 08:09:51;;;;;;;4.43;3.55;;;38.00;42.20;;;;;;5071665;28;20050;-81
2021/06/17 08:12:17;;;;;;;5.75;3.95;;;37.30;42.50;;;;;;5073054;28;20479;-84
2021/06/17 08:14:43;;;;;;;6.55;3.90;;;36.70;43.70;;;;;;5073422;28;20099;-84
2021/06/17 08:17:09;;;;;;;9.30;5.38;;;36.40;44.80;;;;;;5072849;28;20024;-81
2021/06/17 08:19:35;;;;;;;5.68;3.60;;;36.10;44.80;;;;;;5072327;28;20025;-82
2021/06/17 08:22:06;;;;;;;4.40;4.00;;;36.00;45.30;;;;;;5072349;28;20059;-81
2021/06/17 08:24:34;;;;;;;5.35;4.32;;;35.80;45.40;;;;;;5072529;28;20028;-82
2021/06/17 08:27:00;;;;;;;4.50;3.85;;;35.70;45.50;;;;;;5071552;28;20062;-77
2021/06/17 08:29:26;;;;;;;5.32;4.10;;;35.30;45.60;;;;;;5071672;28;20112;-78
2021/06/17 08:31:52;;;;;;;5.68;3.97;;;34.90;46.30;;;;;;5071872;28;20120;-78
2021/06/17 08:34:18;;;;;;;5.13;4.07;;;34.60;46.90;;;;;;5071775;28;20031;-78
2021/06/17 08:36:44;;;;;;;4.57;4.18;;;34.40;47.20;;;;;;5070446;28;20032;-77
2021/06/17 08:39:10;;;;;;;6.05;4.20;;;34.00;47.90;;;;;;5071598;28;20024;-77
2021/06/17 08:41:36;;;;;;;4.50;4.05;;;33.70;48.80;;;;;;5071623;28;20017;-79
2021/06/17 08:44:01;;;;;;;4.80;4.40;;;33.50;48.80;;;;;;5071368;28;20036;-79
2021/06/17 08:46:27;;;;;;;5.60;4.32;;;33.20;49.20;;;;;;5070992;28;20027;-78
2021/06/17 08:48:53;;;;;;;12.60;4.88;;;32.80;50.10;;;;;;5069836;28;20032;-78
2021/06/17 08:51:20;;;;;;;4.90;4.18;;;32.60;50.60;;;;;;5069391;28;20070;-78
2021/06/17 08:53:49;;;;;;;6.72;4.40;;;32.50;51.00;;;;;;5070790;28;20032;-77
2021/06/17 08:56:14;;;;;;;9.95;4.80;;;32.50;51.60;;;;;;5071146;28;20036;-78
2021/06/17 08:58:40;;;;;;;6.40;4.28;;;32.70;51.50;;;;;;5071282;28;20103;-78
2021/06/17 09:01:10;;;;;;;5.20;4.78;;;32.70;51.40;;;;;;5070966;28;20336;-79
2021/06/17 09:03:44;;;;;;;5.90;4.70;;;32.70;51.60;;;;;;5070121;28;20028;-79
2021/06/17 09:06:11;;;;;;;5.88;4.78;;;32.70;51.40;;;;;;5071866;28;20021;-79
2021/06/17 09:08:37;;;;;;;5.20;4.80;;;32.70;51.80;;;;;;5070898;28;20023;-77
2021/06/17 09:11:20;;;;;;;5.22;4.72;;;32.70;52.20;;;;;;5070180;28;20429;-81
2021/06/17 09:13:47;;;;;;;7.05;4.82;;;32.70;51.90;;;;;;5071321;28;20100;-78
2021/06/17 09:16:26;;;;;;;7.38;4.72;;;32.80;51.90;;;;;;5071098;28;20024;-77
2021/06/17 09:18:53;;;;;;;8.35;5.75;;;32.90;51.90;;;;;;5069667;28;20016;-78
2021/06/17 09:21:19;;;;;;;8.18;4.90;;;33.00;51.60;;;;;;5071256;28;20078;-78
2021/06/17 09:23:49;;;;;;;5.22;4.82;;;32.70;52.10;;;;;;5070594;28;20021;-78
2021/06/17 09:26:19;;;;;;;7.57;5.13;;;32.60;52.30;;;;;;5071002;28;20047;-77
2021/06/17 09:31:44;;;;;;;7.70;5.20;;;32.70;52.50;;;;;;5070725;28;20062;-79
2021/06/17 09:34:11;;;;;;;6.43;5.10;;;32.80;52.70;;;;;;5071077;28;20039;-79
2021/06/17 09:36:39;;;;;;;5.97;4.70;;;32.80;52.30;;;;;;5070898;28;20078;-79
2021/06/17 09:39:14;;;;;;;6.82;5.38;;;32.90;52.30;;;;;;5070067;28;20048;-78
2021/06/17 09:41:45;;;;;;;5.95;5.35;;;32.90;51.50;;;;;;5065768;28;20024;-80
2021/06/17 09:44:42;;;;;;;12.82;4.85;;;32.60;51.70;;;;;;5070962;28;20029;-78
2021/06/17 09:47:16;;;;;;;6.97;5.38;;;32.40;52.10;;;;;;5070970;28;20031;-78
2021/06/17 09:49:43;;;;;;;9.73;5.93;;;32.30;52.20;;;;;;5070764;28;20017;-78
2021/06/17 09:52:11;;;;;;;6.38;5.10;;;32.20;52.70;;;;;;5069878;28;20013;-79
2021/06/17 09:54:40;;;;;;;8.27;5.63;;;32.10;53.00;;;;;;5069266;28;20392;-78
2021/06/17 09:57:09;;;;;;;7.47;5.78;;;32.10;53.10;;;;;;5069239;28;20032;-79
2021/06/17 09:59:49;;;;;;;7.95;5.60;;;32.10;53.00;;;;;;5070963;28;20771;-78
2021/06/17 10:02:32;;;;;;;9.65;5.97;;;32.10;53.20;;;;;;5070725;28;20479;-77
2021/06/17 10:05:14;;;;;;;10.55;6.47;;;32.00;53.00;;;;;;5070651;28;20144;-78
2021/06/17 10:07:43;;;;;;;;;;;31.70;53.30;;;;;;5070642;28;20017;-78
2021/06/17 10:10:10;;;;;;;6.13;5.50;;;31.50;53.40;;;;;;5070981;28;20465;-78
2021/06/17 10:12:37;;;;;;;9.48;6.07;;;31.50;53.70;;;;;;5069982;28;20028;-79
2021/06/17 10:15:05;;;;;;;7.78;5.60;;;31.40;53.50;;;;;;5068740;28;20025;-77
2021/06/17 10:17:31;;;;;;;7.60;5.93;;;31.30;54.20;;;;;;5068591;28;20064;-76
2021/06/17 10:19:58;;;;;;;8.25;5.57;;;31.20;54.30;;;;;;5069933;28;20044;-77
2021/06/17 10:22:37;;;;;;;6.40;5.80;;;31.20;54.90;;;;;;5070158;28;20060;-76
2021/06/17 10:25:04;;;;;;;6.72;5.72;;;31.20;54.70;;;;;;5070039;28;20028;-76
2021/06/17 10:27:50;;;;;;;7.57;5.60;;;31.20;54.30;;;;;;5069671;28;20039;-78
2021/06/17 10:30:44;;;;;;;11.32;5.82;;;31.00;54.90;;;;;;5070383;28;20164;-77
2021/06/17 10:33:36;;;;;;;6.43;5.82;;;31.00;54.60;;;;;;5068737;28;20458;-76
2021/06/17 10:36:17;;;;;;;;;;;30.90;54.40;;;;;;5070623;28;20062;-84
2021/06/17 10:39:10;;;;;;;8.95;6.25;;;31.10;54.60;;;;;;5070274;28;20003;-84
2021/06/17 10:41:56;;;;;;;6.53;5.90;;;31.20;54.60;;;;;;5071716;28;20074;-84
2021/06/17 10:45:01;;;;;;;11.45;6.40;;;31.10;54.30;;;;;;5073772;28;20051;-88
2021/06/17 10:47:39;;;;;;;7.93;5.70;;;30.90;54.80;;;;;;5075794;28;20051;-85
2021/06/17 10:50:06;;;;;;;8.52;6.07;;;30.80;55.20;;;;;;5075909;28;20020;-85
2021/06/17 10:52:32;;;;;;;8.18;5.90;;;30.70;55.00;;;;;;5074093;28;20028;-84
2021/06/17 10:55:18;;;;;;;6.80;6.10;;;30.60;55.30;;;;;;5076428;28;20057;-83
2021/06/17 11:00:22;;;;;;;10.25;6.47;;;30.70;55.80;;;;;;5077569;28;20104;-84
2021/06/17 11:03:01;;;;;;;8.55;6.55;;;30.70;56.00;;;;;;5091825;28;20020;-83
2021/06/17 11:05:33;;;;;;;8.10;6.90;;;30.80;56.20;;;;;;5091325;28;20029;-84
2021/06/17 11:08:14;;;;;;;7.78;6.50;;;30.80;56.60;;;;;;5090199;28;20037;-83
2021/06/17 11:10:50;;;;;;;10.35;6.28;;;30.80;56.40;;;;;;5084919;28;20031;-84
2021/06/17 11:13:28;;;;;;;7.07;6.22;;;30.80;56.30;;;;;;5079104;28;20025;-83
2021/06/17 11:15:55;;;;;;;6.45;5.95;;;30.80;56.50;;;;;;5075703;28;20777;-84
2021/06/17 11:18:40;;;;;;;8.50;7.07;;;30.70;56.20;;;;;;5075981;28;20112;-83
2021/06/17 11:21:28;;;;;;;9.32;6.45;;;30.60;56.90;;;;;;5076297;28;20016;-83
2021/06/17 11:23:59;;;;;;;9.45;5.85;;;30.60;56.80;;;;;;5076829;28;20099;-83
2021/06/17 11:26:37;;;;;;;10.98;6.30;;;30.40;56.90;;;;;;5073854;28;20147;-83
2021/06/17 11:29:10;;;;;;;8.15;6.38;;;30.30;57.00;;;;;;5075513;28;20382;-84
2021/06/17 11:31:49;;;;;;;11.40;6.20;;;30.30;56.80;;;;;;5074618;28;20033;-80
2021/06/17 11:34:36;;;;;;;9.55;5.93;;;30.30;56.60;;;;;;5074434;28;20032;-80
2021/06/17 11:37:13;;;;;;;6.88;6.18;;;30.40;56.40;;;;;;5073943;28;20127;-81
2021/06/17 11:39:39;;;;;;;8.20;6.15;;;30.70;56.50;;;;;;5073535;28;20471;-80
2021/06/17 11:42:06;;;;;;;8.68;5.40;;;30.80;56.10;;;;;;5073283;28;20027;-75
2021/06/17 11:44:32;;;;;;;11.20;6.00;;;30.70;55.00;;;;;;5073150;28;20354;-75
2021/06/17 11:47:15;;;;;;;7.07;6.30;;;30.60;55.40;;;;;;5072210;28;20029;-75
2021/06/17 11:49:47;;;;;;;6.85;6.00;;;30.60;55.80;;;;;;5073433;28;20129;-76
2021/06/17 11:52:15;;;;;;;9.55;5.90;;;30.60;55.80;;;;;;5073041;28;20414;-76
2021/06/17 11:54:44;;;;;;;7.00;5.82;;;30.50;55.30;;;;;;5072733;28;20067;-77
2021/06/17 11:57:11;;;;;;;6.05;5.45;;;30.50;55.10;;;;;;5073207;28;20411;-76
2021/06/17 11:59:39;;;;;;;13.88;5.50;;;30.40;55.40;;;;;;5073380;28;20063;-76
2021/06/17 12:02:13;;;;;;;6.47;5.25;;;30.30;55.20;;;;;;5073303;28;20028;-76
2021/06/17 12:04:44;;;;;;;7.35;5.88;;;30.40;55.20;;;;;;5073537;28;20478;-77
2021/06/17 12:07:13;;;;;;;8.10;5.75;;;30.40;55.90;;;;;;5073236;28;20070;-75
2021/06/17 12:09:39;;;;;;;8.23;7.40;;;30.40;56.30;;;;;;5072935;28;20031;-75
2021/06/17 12:12:19;;;;;;;7.15;6.05;;;30.40;56.60;;;;;;5072633;28;20024;-77
2021/06/17 12:14:50;;;;;;;6.38;5.38;;;30.50;56.60;;;;;;5072837;28;20043;-76
2021/06/17 12:17:45;;;;;;;8.02;5.70;;;30.50;56.70;;;;;;5072993;28;20023;-76
2021/06/17 12:20:25;;;;;;;6.88;5.88;;;30.40;56.40;;;;;;5072679;28;20540;-77
2021/06/17 12:22:56;;;;;;;9.07;5.57;;;30.40;55.80;;;;;;5071649;28;20041;-76
2021/06/17 12:25:24;;;;;;;9.73;5.65;;;30.40;56.00;;;;;;5071544;28;20107;-76
2021/06/17 12:27:50;;;;;;;9.82;5.35;;;30.40;56.20;;;;;;5072036;28;20077;-76
2021/06/17 12:30:39;;;;;;;10.50;5.65;;;30.50;56.30;;;;;;5073308;28;20028;-76
2021/06/17 12:33:07;;;;;;;8.27;5.68;;;30.60;55.70;;;;;;5072359;28;20020;-75
2021/06/17 12:35:40;;;;;;;7.18;5.70;;;30.50;55.50;;;;;;5072147;28;20040;-76
2021/06/17 12:38:06;;;;;;;9.07;5.90;;;30.40;55.90;;;;;;5072279;28;20020;-77
2021/06/17 12:40:34;;;;;;;8.90;6.20;;;30.30;55.60;;;;;;5072600;28;20028;-76
2021/06/17 12:43:07;;;;;;;8.52;7.70;;;30.20;56.20;;;;;;5072078;28;20027;-76
2021/06/17 12:45:36;;;;;;;7.78;6.75;;;30.10;56.60;;;;;;5071941;28;20063;-75
2021/06/17 12:48:33;;;;;;;9.38;6.97;;;30.20;57.00;;;;;;5071853;28;20024;-76
2021/06/17 12:54:00;;;;;;;6.20;5.70;;;30.20;57.20;;;;;;5072036;28;20090;-77
2021/06/17 12:56:26;;;;;;;6.53;5.90;;;30.20;57.20;;;;;;5071308;28;20356;-80
2021/06/17 12:58:53;;;;;;;7.28;5.60;;;30.10;56.80;;;;;;5071518;28;20094;-77
2021/06/17 13:01:22;;;;;;;8.35;5.25;;;30.00;56.80;;;;;;5071398;28;20017;-79
2021/06/17 13:03:50;;;;;;;12.70;5.80;;;30.00;56.80;;;;;;5070208;28;20098;-78
2021/06/17 13:06:34;;;;;;;10.07;6.18;;;29.90;56.90;;;;;;5071528;28;20063;-81
2021/06/17 13:09:00;;;;;;;8.05;5.65;;;29.80;55.50;;;;;;5071943;28;20099;-80
2021/06/17 13:11:31;;;;;;;5.95;5.30;;;29.70;55.70;;;;;;5075186;28;20044;-81